sensor_id;sensor_type;location;lat;lon;timestamp;pressure;altitude;pressure_sealevel;temperature;humidity
69171;BME280;56279;47.902;12.308;2023-06-10T00:01:29;94950.38;;;16.80;72.83
69171;BME280;56279;47.902;12.308;2023-06-10T00:03:31;94946.78;;;16.76;72.87
69171;BME280;56279;47.902;12.308;2023-06-10T00:05:32;94948.53;;;16.72;73.18
69171;BME280;56279;47.902;12.308;2023-06-10T00:07:35;94955.28;;;16.69;73.50
69171;BME280;56279;47.902;12.308;2023-06-10T00:09:39;94950.63;;;16.66;73.47
69171;BME280;56279;47.902;12.308;2023-06-10T00:11:41;94960.06;;;16.64;73.69
69171;BME280;56279;47.902;12.308;2023-06-10T00:13:43;94961.13;;;16.63;73.71
69171;BME280;56279;47.902;12.308;2023-06-10T00:15:44;94961.78;;;16.59;73.95
69171;BME280;56279;47.902;12.308;2023-06-10T00:17:45;94947.22;;;16.57;74.21
69171;BME280;56279;47.902;12.308;2023-06-10T00:19:47;94960.41;;;16.53;74.25
69171;BME280;56279;47.902;12.308;2023-06-10T00:21:48;94952.25;;;16.50;74.47
69171;BME280;56279;47.902;12.308;2023-06-10T00:23:50;94957.91;;;16.48;74.56
69171;BME280;56279;47.902;12.308;2023-06-10T00:25:51;94957.78;;;16.45;74.19
69171;BME280;56279;47.902;12.308;2023-06-10T00:27:53;94953.53;;;16.44;74.76
69171;BME280;56279;47.902;12.308;2023-06-10T00:29:54;94952.31;;;16.41;75.04
69171;BME280;56279;47.902;12.308;2023-06-10T00:31:55;94960.16;;;16.38;75.11
69171;BME280;56279;47.902;12.308;2023-06-10T00:33:58;94953.59;;;16.35;75.46
69171;BME280;56279;47.902;12.308;2023-06-10T00:36:00;94952.03;;;16.34;75.28
69171;BME280;56279;47.902;12.308;2023-06-10T00:38:03;94956.91;;;16.32;75.65
69171;BME280;56279;47.902;12.308;2023-06-10T00:40:05;94960.66;;;16.31;75.72
69171;BME280;56279;47.902;12.308;2023-06-10T00:42:08;94957.53;;;16.29;76.03
69171;BME280;56279;47.902;12.308;2023-06-10T00:44:11;94961.16;;;16.25;75.82
69171;BME280;56279;47.902;12.308;2023-06-10T00:46:13;94961.03;;;16.21;76.18
69171;BME280;56279;47.902;12.308;2023-06-10T00:48:14;94966.53;;;16.16;76.23
69171;BME280;56279;47.902;12.308;2023-06-10T00:50:15;94967.50;;;16.12;76.51
69171;BME280;56279;47.902;12.308;2023-06-10T00:52:18;94965.78;;;16.07;76.55
69171;BME280;56279;47.902;12.308;2023-06-10T00:54:21;94973.63;;;16.04;76.67
69171;BME280;56279;47.902;12.308;2023-06-10T00:56:22;94976.16;;;16.00;76.88
69171;BME280;56279;47.902;12.308;2023-06-10T00:58:24;94967.53;;;15.95;76.99
69171;BME280;56279;47.902;12.308;2023-06-10T01:00:26;94974.94;;;15.89;76.96
69171;BME280;56279;47.902;12.308;2023-06-10T01:02:29;94969.00;;;15.83;77.41
69171;BME280;56279;47.902;12.308;2023-06-10T01:04:33;94971.81;;;15.78;77.81
69171;BME280;56279;47.902;12.308;2023-06-10T01:08:44;94970.44;;;15.72;78.12
69171;BME280;56279;47.902;12.308;2023-06-10T01:10:51;94974.06;;;15.68;77.99
69171;BME280;56279;47.902;12.308;2023-06-10T01:13:01;94973.91;;;15.64;78.29
69171;BME280;56279;47.902;12.308;2023-06-10T01:15:08;94972.66;;;15.62;78.17
69171;BME280;56279;47.902;12.308;2023-06-10T01:17:11;94969.53;;;15.60;78.52
69171;BME280;56279;47.902;12.308;2023-06-10T01:19:13;94975.97;;;15.59;78.47
69171;BME280;56279;47.902;12.308;2023-06-10T01:21:23;94979.53;;;15.54;78.29
69171;BME280;56279;47.902;12.308;2023-06-10T01:23:25;94971.88;;;15.53;78.82
69171;BME280;56279;47.902;12.308;2023-06-10T01:25:27;94982.06;;;15.51;79.02
69171;BME280;56279;47.902;12.308;2023-06-10T01:27:33;94973.16;;;15.47;78.91
69171;BME280;56279;47.902;12.308;2023-06-10T01:29:50;94969.06;;;15.41;78.83
69171;BME280;56279;47.902;12.308;2023-06-10T01:32:11;94969.69;;;15.38;79.08
69171;BME280;56279;47.902;12.308;2023-06-10T01:34:18;94973.78;;;15.35;79.51
69171;BME280;56279;47.902;12.308;2023-06-10T01:36:22;94973.59;;;15.32;79.42
69171;BME280;56279;47.902;12.308;2023-06-10T01:38:26;94965.16;;;15.30;79.68
69171;BME280;56279;47.902;12.308;2023-06-10T01:40:29;94969.22;;;15.27;79.91
69171;BME280;56279;47.902;12.308;2023-06-10T01:42:32;94966.91;;;15.26;80.16
69171;BME280;56279;47.902;12.308;2023-06-10T01:44:33;94968.75;;;15.25;80.11
69171;BME280;56279;47.902;12.308;2023-06-10T01:46:35;94962.19;;;15.22;80.29
69171;BME280;56279;47.902;12.308;2023-06-10T01:48:37;94961.72;;;15.20;80.36
69171;BME280;56279;47.902;12.308;2023-06-10T01:50:38;94963.94;;;15.18;80.41
69171;BME280;56279;47.902;12.308;2023-06-10T01:52:40;94961.88;;;15.15;80.78
69171;BME280;56279;47.902;12.308;2023-06-10T01:54:41;94965.16;;;15.12;80.74
69171;BME280;56279;47.902;12.308;2023-06-10T01:56:42;94972.69;;;15.10;80.75
69171;BME280;56279;47.902;12.308;2023-06-10T01:58:44;94966.91;;;15.08;80.78
69171;BME280;56279;47.902;12.308;2023-06-10T02:00:45;94971.28;;;15.04;80.77
69171;BME280;56279;47.902;12.308;2023-06-10T02:02:46;94961.28;;;15.01;81.36
69171;BME280;56279;47.902;12.308;2023-06-10T02:04:48;94968.44;;;15.01;81.47
69171;BME280;56279;47.902;12.308;2023-06-10T02:06:49;94969.56;;;15.00;81.38
69171;BME280;56279;47.902;12.308;2023-06-10T02:08:51;94968.31;;;14.97;81.25
69171;BME280;56279;47.902;12.308;2023-06-10T02:10:52;94973.16;;;14.95;81.32
69171;BME280;56279;47.902;12.308;2023-06-10T02:12:54;94976.44;;;14.92;81.62
69171;BME280;56279;47.902;12.308;2023-06-10T02:14:56;94979.69;;;14.89;81.97
69171;BME280;56279;47.902;12.308;2023-06-10T02:16:57;94977.69;;;14.86;81.79
69171;BME280;56279;47.902;12.308;2023-06-10T02:18:58;94970.66;;;14.82;82.17
69171;BME280;56279;47.902;12.308;2023-06-10T02:21:02;94968.91;;;14.77;82.57
69171;BME280;56279;47.902;12.308;2023-06-10T02:23:05;94965.03;;;14.75;82.82
69171;BME280;56279;47.902;12.308;2023-06-10T02:25:07;94977.81;;;14.73;82.81
69171;BME280;56279;47.902;12.308;2023-06-10T02:27:08;94973.91;;;14.70;83.02
69171;BME280;56279;47.902;12.308;2023-06-10T02:29:09;94976.09;;;14.68;82.92
69171;BME280;56279;47.902;12.308;2023-06-10T02:31:11;94972.16;;;14.66;83.01
69171;BME280;56279;47.902;12.308;2023-06-10T02:33:12;94979.38;;;14.65;83.23
69171;BME280;56279;47.902;12.308;2023-06-10T02:35:15;94980.00;;;14.62;83.15
69171;BME280;56279;47.902;12.308;2023-06-10T02:37:17;94977.94;;;14.59;83.21
69171;BME280;56279;47.902;12.308;2023-06-10T02:39:19;94983.09;;;14.56;83.58
69171;BME280;56279;47.902;12.308;2023-06-10T02:41:21;94978.09;;;14.54;83.73
69171;BME280;56279;47.902;12.308;2023-06-10T02:43:23;94982.47;;;14.50;83.85
69171;BME280;56279;47.902;12.308;2023-06-10T02:45:27;94982.31;;;14.46;84.27
69171;BME280;56279;47.902;12.308;2023-06-10T02:47:29;94987.91;;;14.45;84.21
69171;BME280;56279;47.902;12.308;2023-06-10T02:49:31;94982.91;;;14.43;84.55
69171;BME280;56279;47.902;12.308;2023-06-10T02:51:33;94984.00;;;14.42;84.47
69171;BME280;56279;47.902;12.308;2023-06-10T02:53:38;94979.00;;;14.41;84.45
69171;BME280;56279;47.902;12.308;2023-06-10T02:55:44;94981.50;;;14.37;84.45
69171;BME280;56279;47.902;12.308;2023-06-10T02:57:48;94988.22;;;14.35;84.77
69171;BME280;56279;47.902;12.308;2023-06-10T02:59:51;94986.94;;;14.32;84.83
69171;BME280;56279;47.902;12.308;2023-06-10T03:01:55;94981.94;;;14.31;85.06
69171;BME280;56279;47.902;12.308;2023-06-10T03:03:57;94987.53;;;14.29;84.99
69171;BME280;56279;47.902;12.308;2023-06-10T03:06:01;94985.94;;;14.28;85.12
69171;BME280;56279;47.902;12.308;2023-06-10T03:08:03;94984.41;;;14.27;85.15
69171;BME280;56279;47.902;12.308;2023-06-10T03:10:06;94988.94;;;14.27;85.02
69171;BME280;56279;47.902;12.308;2023-06-10T03:12:10;94992.97;;;14.24;85.19
69171;BME280;56279;47.902;12.308;2023-06-10T03:14:16;94988.78;;;14.23;85.27
69171;BME280;56279;47.902;12.308;2023-06-10T03:16:17;94993.28;;;14.23;85.30
69171;BME280;56279;47.902;12.308;2023-06-10T03:18:20;94987.19;;;14.22;85.41
69171;BME280;56279;47.902;12.308;2023-06-10T03:20:24;94994.09;;;14.23;85.68
69171;BME280;56279;47.902;12.308;2023-06-10T03:22:27;94995.34;;;14.26;85.62
69171;BME280;56279;47.902;12.308;2023-06-10T03:24:39;94990.31;;;14.24;85.67
69171;BME280;56279;47.902;12.308;2023-06-10T03:26:43;94984.41;;;14.27;85.54
69171;BME280;56279;47.902;12.308;2023-06-10T03:28:45;94996.31;;;14.30;85.74
69171;BME280;56279;47.902;12.308;2023-06-10T03:30:47;95002.88;;;14.32;85.57
69171;BME280;56279;47.902;12.308;2023-06-10T03:32:50;94999.91;;;14.34;85.44
69171;BME280;56279;47.902;12.308;2023-06-10T03:34:53;95004.63;;;14.37;85.26
69171;BME280;56279;47.902;12.308;2023-06-10T03:36:59;94995.53;;;14.38;85.42
69171;BME280;56279;47.902;12.308;2023-06-10T03:39:01;94997.13;;;14.39;85.45
69171;BME280;56279;47.902;12.308;2023-06-10T03:41:03;94997.59;;;14.41;85.58
69171;BME280;56279;47.902;12.308;2023-06-10T03:43:05;94997.78;;;14.44;85.57
69171;BME280;56279;47.902;12.308;2023-06-10T03:45:07;95001.38;;;14.48;85.50
69171;BME280;56279;47.902;12.308;2023-06-10T03:47:10;94999.19;;;14.50;85.44
69171;BME280;56279;47.902;12.308;2023-06-10T03:49:12;95005.75;;;14.53;85.31
69171;BME280;56279;47.902;12.308;2023-06-10T03:51:17;95010.75;;;14.54;85.51
69171;BME280;56279;47.902;12.308;2023-06-10T03:53:18;95006.69;;;14.57;85.67
69171;BME280;56279;47.902;12.308;2023-06-10T03:55:21;95012.19;;;14.61;85.39
69171;BME280;56279;47.902;12.308;2023-06-10T03:57:24;95011.88;;;14.62;85.27
69171;BME280;56279;47.902;12.308;2023-06-10T03:59:25;95017.19;;;14.62;85.42
69171;BME280;56279;47.902;12.308;2023-06-10T04:01:26;95015.94;;;14.68;85.38
69171;BME280;56279;47.902;12.308;2023-06-10T04:03:29;95018.81;;;14.97;84.74
69171;BME280;56279;47.902;12.308;2023-06-10T04:05:31;95020.84;;;15.35;83.56
69171;BME280;56279;47.902;12.308;2023-06-10T04:07:32;95026.00;;;15.74;82.33
69171;BME280;56279;47.902;12.308;2023-06-10T04:09:35;95023.44;;;16.03;81.42
69171;BME280;56279;47.902;12.308;2023-06-10T04:11:39;95025.56;;;16.18;80.73
69171;BME280;56279;47.902;12.308;2023-06-10T04:13:41;95034.00;;;16.29;80.43
69171;BME280;56279;47.902;12.308;2023-06-10T04:15:43;95034.06;;;16.49;79.80
69171;BME280;56279;47.902;12.308;2023-06-10T04:17:48;95026.38;;;16.56;79.05
69171;BME280;56279;47.902;12.308;2023-06-10T04:19:51;95031.09;;;16.51;79.25
69171;BME280;56279;47.902;12.308;2023-06-10T04:21:53;95033.63;;;16.39;79.49
69171;BME280;56279;47.902;12.308;2023-06-10T04:23:55;95028.50;;;16.25;79.77
69171;BME280;56279;47.902;12.308;2023-06-10T04:25:56;95030.31;;;16.04;80.09
69171;BME280;56279;47.902;12.308;2023-06-10T04:27:59;95036.75;;;15.95;80.57
69171;BME280;56279;47.902;12.308;2023-06-10T04:30:02;95038.03;;;15.88;80.38
69171;BME280;56279;47.902;12.308;2023-06-10T04:32:05;95034.91;;;15.78;80.98
69171;BME280;56279;47.902;12.308;2023-06-10T04:34:08;95037.56;;;15.78;81.54
69171;BME280;56279;47.902;12.308;2023-06-10T04:36:09;95040.84;;;15.83;81.42
69171;BME280;56279;47.902;12.308;2023-06-10T04:38:11;95039.56;;;15.98;81.46
69171;BME280;56279;47.902;12.308;2023-06-10T04:40:12;95037.59;;;16.24;80.85
69171;BME280;56279;47.902;12.308;2023-06-10T04:42:15;95038.28;;;16.50;79.85
69171;BME280;56279;47.902;12.308;2023-06-10T04:44:17;95037.97;;;16.61;79.35
69171;BME280;56279;47.902;12.308;2023-06-10T04:46:19;95034.78;;;16.67;79.45
69171;BME280;56279;47.902;12.308;2023-06-10T04:48:20;95031.34;;;16.67;79.52
69171;BME280;56279;47.902;12.308;2023-06-10T04:50:22;95033.81;;;16.72;79.65
69171;BME280;56279;47.902;12.308;2023-06-10T04:52:23;95029.09;;;16.77;79.42
69171;BME280;56279;47.902;12.308;2023-06-10T04:54:25;95034.72;;;16.76;79.35
69171;BME280;56279;47.902;12.308;2023-06-10T04:56:27;95043.06;;;16.74;79.26
69171;BME280;56279;47.902;12.308;2023-06-10T04:58:29;95047.13;;;16.72;79.42
69171;BME280;56279;47.902;12.308;2023-06-10T05:00:31;95049.03;;;16.71;79.42
69171;BME280;56279;47.902;12.308;2023-06-10T05:02:32;95050.94;;;16.71;79.72
69171;BME280;56279;47.902;12.308;2023-06-10T05:04:33;95053.25;;;16.72;79.82
69171;BME280;56279;47.902;12.308;2023-06-10T05:06:35;95046.84;;;16.73;80.03
69171;BME280;56279;47.902;12.308;2023-06-10T05:08:37;95044.63;;;16.75;79.89
69171;BME280;56279;47.902;12.308;2023-06-10T05:10:39;95051.97;;;16.78;79.97
69171;BME280;56279;47.902;12.308;2023-06-10T05:12:41;95062.78;;;16.82;80.02
69171;BME280;56279;47.902;12.308;2023-06-10T05:14:42;95053.34;;;16.84;79.91
69171;BME280;56279;47.902;12.308;2023-06-10T05:16:43;95050.06;;;16.87;79.88
69171;BME280;56279;47.902;12.308;2023-06-10T05:18:44;95051.75;;;16.92;79.82
69171;BME280;56279;47.902;12.308;2023-06-10T05:20:46;95054.53;;;16.95;79.63
69171;BME280;56279;47.902;12.308;2023-06-10T05:22:47;95057.03;;;17.00;79.64
69171;BME280;56279;47.902;12.308;2023-06-10T05:24:49;95063.91;;;17.01;79.66
69171;BME280;56279;47.902;12.308;2023-06-10T05:26:50;95062.03;;;17.02;79.64
69171;BME280;56279;47.902;12.308;2023-06-10T05:28:51;95064.03;;;17.05;79.79
69171;BME280;56279;47.902;12.308;2023-06-10T05:30:53;95056.22;;;17.00;79.97
69171;BME280;56279;47.902;12.308;2023-06-10T05:32:57;95062.69;;;16.99;80.17
69171;BME280;56279;47.902;12.308;2023-06-10T05:34:58;95062.03;;;17.02;80.04
69171;BME280;56279;47.902;12.308;2023-06-10T05:37:01;95059.16;;;17.07;79.75
69171;BME280;56279;47.902;12.308;2023-06-10T05:39:02;95067.44;;;17.14;79.82
69171;BME280;56279;47.902;12.308;2023-06-10T05:41:04;95058.81;;;17.17;79.63
69171;BME280;56279;47.902;12.308;2023-06-10T05:43:05;95061.28;;;17.22;79.60
69171;BME280;56279;47.902;12.308;2023-06-10T05:45:07;95060.94;;;17.23;79.51
69171;BME280;56279;47.902;12.308;2023-06-10T05:47:09;95057.19;;;17.24;79.53
69171;BME280;56279;47.902;12.308;2023-06-10T05:49:10;95059.72;;;17.21;79.42
69171;BME280;56279;47.902;12.308;2023-06-10T05:51:12;95059.25;;;17.19;79.66
69171;BME280;56279;47.902;12.308;2023-06-10T05:53:14;95061.59;;;17.20;79.50
69171;BME280;56279;47.902;12.308;2023-06-10T05:55:16;95065.50;;;17.23;79.62
69171;BME280;56279;47.902;12.308;2023-06-10T05:57:17;95070.53;;;17.24;79.58
69171;BME280;56279;47.902;12.308;2023-06-10T05:59:18;95073.94;;;17.25;79.35
69171;BME280;56279;47.902;12.308;2023-06-10T06:01:20;95064.84;;;17.26;79.59
69171;BME280;56279;47.902;12.308;2023-06-10T06:03:21;95063.16;;;17.21;79.64
69171;BME280;56279;47.902;12.308;2023-06-10T06:05:23;95057.03;;;17.21;79.67
69171;BME280;56279;47.902;12.308;2023-06-10T06:07:24;95058.63;;;17.22;79.35
69171;BME280;56279;47.902;12.308;2023-06-10T06:09:25;95065.94;;;17.25;79.28
69171;BME280;56279;47.902;12.308;2023-06-10T06:11:26;95061.31;;;17.34;79.08
69171;BME280;56279;47.902;12.308;2023-06-10T06:13:28;95070.06;;;17.43;78.86
69171;BME280;56279;47.902;12.308;2023-06-10T06:15:29;95064.22;;;17.50;78.84
69171;BME280;56279;47.902;12.308;2023-06-10T06:17:30;95063.25;;;17.54;78.72
69171;BME280;56279;47.902;12.308;2023-06-10T06:19:32;95067.72;;;17.62;78.97
69171;BME280;56279;47.902;12.308;2023-06-10T06:21:33;95065.75;;;17.71;78.04
69171;BME280;56279;47.902;12.308;2023-06-10T06:23:35;95063.47;;;17.82;77.85
69171;BME280;56279;47.902;12.308;2023-06-10T06:25:36;95061.84;;;17.89;77.22
69171;BME280;56279;47.902;12.308;2023-06-10T06:27:40;95058.97;;;17.94;77.14
69171;BME280;56279;47.902;12.308;2023-06-10T06:29:41;95061.41;;;18.00;76.89
69171;BME280;56279;47.902;12.308;2023-06-10T06:31:43;95058.53;;;18.05;76.72
69171;BME280;56279;47.902;12.308;2023-06-10T06:33:44;95064.34;;;18.07;76.67
69171;BME280;56279;47.902;12.308;2023-06-10T06:35:46;95068.69;;;18.11;76.65
69171;BME280;56279;47.902;12.308;2023-06-10T06:37:47;95062.34;;;18.16;76.17
69171;BME280;56279;47.902;12.308;2023-06-10T06:39:54;95068.81;;;18.15;75.99
69171;BME280;56279;47.902;12.308;2023-06-10T06:41:55;95061.16;;;18.13;75.49
69171;BME280;56279;47.902;12.308;2023-06-10T06:44:14;95065.03;;;18.16;75.77
69171;BME280;56279;47.902;12.308;2023-06-10T06:46:18;95060.59;;;18.20;75.46
69171;BME280;56279;47.902;12.308;2023-06-10T06:48:21;95067.19;;;18.22;74.90
69171;BME280;56279;47.902;12.308;2023-06-10T06:50:23;95058.03;;;18.23;75.47
69171;BME280;56279;47.902;12.308;2023-06-10T06:52:24;95062.28;;;18.24;74.85
69171;BME280;56279;47.902;12.308;2023-06-10T06:54:25;95060.72;;;18.23;75.14
69171;BME280;56279;47.902;12.308;2023-06-10T06:56:26;95062.72;;;18.26;75.21
69171;BME280;56279;47.902;12.308;2023-06-10T06:58:29;95065.06;;;18.28;74.88
69171;BME280;56279;47.902;12.308;2023-06-10T07:00:31;95055.50;;;18.27;74.98
69171;BME280;56279;47.902;12.308;2023-06-10T07:02:32;95064.28;;;18.27;74.99
69171;BME280;56279;47.902;12.308;2023-06-10T07:04:34;95056.28;;;18.27;75.42
69171;BME280;56279;47.902;12.308;2023-06-10T07:06:36;95063.81;;;18.25;75.30
69171;BME280;56279;47.902;12.308;2023-06-10T07:08:37;95064.41;;;18.31;75.46
69171;BME280;56279;47.902;12.308;2023-06-10T07:10:39;95065.41;;;18.38;74.83
69171;BME280;56279;47.902;12.308;2023-06-10T07:12:40;95064.88;;;18.45;75.03
69171;BME280;56279;47.902;12.308;2023-06-10T07:14:42;95073.16;;;18.52;74.58
69171;BME280;56279;47.902;12.308;2023-06-10T07:16:43;95070.72;;;18.59;74.08
69171;BME280;56279;47.902;12.308;2023-06-10T07:18:46;95061.25;;;18.61;74.19
69171;BME280;56279;47.902;12.308;2023-06-10T07:20:47;95071.59;;;18.63;73.72
69171;BME280;56279;47.902;12.308;2023-06-10T07:22:49;95072.81;;;18.66;73.83
69171;BME280;56279;47.902;12.308;2023-06-10T07:24:50;95077.63;;;18.72;73.80
69171;BME280;56279;47.902;12.308;2023-06-10T07:26:52;95073.63;;;18.78;73.20
69171;BME280;56279;47.902;12.308;2023-06-10T07:28:54;95072.28;;;18.84;73.24
69171;BME280;56279;47.902;12.308;2023-06-10T07:30:55;95073.63;;;18.90;72.46
69171;BME280;56279;47.902;12.308;2023-06-10T07:32:56;95076.84;;;18.96;71.59
69171;BME280;56279;47.902;12.308;2023-06-10T07:34:58;95075.63;;;18.93;72.13
69171;BME280;56279;47.902;12.308;2023-06-10T07:37:01;95077.19;;;18.94;71.24
69171;BME280;56279;47.902;12.308;2023-06-10T07:39:02;95078.84;;;18.99;71.15
69171;BME280;56279;47.902;12.308;2023-06-10T07:41:03;95078.06;;;18.98;70.23
69171;BME280;56279;47.902;12.308;2023-06-10T07:43:06;95070.59;;;19.04;70.57
69171;BME280;56279;47.902;12.308;2023-06-10T07:45:07;95080.63;;;19.07;69.88
69171;BME280;56279;47.902;12.308;2023-06-10T07:47:09;95075.38;;;19.10;69.95
69171;BME280;56279;47.902;12.308;2023-06-10T07:49:12;95076.03;;;19.19;70.27
69171;BME280;56279;47.902;12.308;2023-06-10T07:51:13;95076.34;;;19.30;69.97
69171;BME280;56279;47.902;12.308;2023-06-10T07:53:14;95073.59;;;19.39;70.18
69171;BME280;56279;47.902;12.308;2023-06-10T07:55:15;95076.91;;;19.48;69.54
69171;BME280;56279;47.902;12.308;2023-06-10T07:57:17;95070.75;;;19.59;69.37
69171;BME280;56279;47.902;12.308;2023-06-10T07:59:18;95069.84;;;19.67;69.23
69171;BME280;56279;47.902;12.308;2023-06-10T08:01:20;95078.03;;;19.74;69.21
69171;BME280;56279;47.902;12.308;2023-06-10T08:03:21;95076.34;;;19.82;68.77
69171;BME280;56279;47.902;12.308;2023-06-10T08:05:22;95073.19;;;19.92;68.66
69171;BME280;56279;47.902;12.308;2023-06-10T08:07:24;95082.41;;;20.07;68.81
69171;BME280;56279;47.902;12.308;2023-06-10T08:09:26;95074.50;;;20.26;68.05
69171;BME280;56279;47.902;12.308;2023-06-10T08:11:27;95079.91;;;20.41;67.83
69171;BME280;56279;47.902;12.308;2023-06-10T08:13:30;95075.94;;;20.66;67.18
69171;BME280;56279;47.902;12.308;2023-06-10T08:15:31;95075.31;;;20.89;66.27
69171;BME280;56279;47.902;12.308;2023-06-10T08:17:33;95075.41;;;21.08;65.54
69171;BME280;56279;47.902;12.308;2023-06-10T08:19:34;95084.50;;;21.19;65.23
69171;BME280;56279;47.902;12.308;2023-06-10T08:21:35;95074.75;;;21.30;64.80
69171;BME280;56279;47.902;12.308;2023-06-10T08:23:38;95078.41;;;21.38;64.09
69171;BME280;56279;47.902;12.308;2023-06-10T08:25:40;95076.72;;;21.49;63.00
69171;BME280;56279;47.902;12.308;2023-06-10T08:27:41;95077.16;;;21.70;62.79
69171;BME280;56279;47.902;12.308;2023-06-10T08:29:42;95077.38;;;21.99;62.96
69171;BME280;56279;47.902;12.308;2023-06-10T08:31:44;95082.66;;;22.15;62.20
69171;BME280;56279;47.902;12.308;2023-06-10T08:33:45;95076.34;;;22.27;61.54
69171;BME280;56279;47.902;12.308;2023-06-10T08:35:47;95076.19;;;22.39;61.82
69171;BME280;56279;47.902;12.308;2023-06-10T08:37:48;95070.94;;;22.46;61.20
69171;BME280;56279;47.902;12.308;2023-06-10T08:39:49;95075.75;;;22.56;60.71
69171;BME280;56279;47.902;12.308;2023-06-10T08:42:45;95074.28;;;22.81;60.60
69171;BME280;56279;47.902;12.308;2023-06-10T08:44:28;95075.72;;;23.01;59.56
69171;BME280;56279;47.902;12.308;2023-06-10T08:46:31;95069.31;;;23.09;58.70
69171;BME280;56279;47.902;12.308;2023-06-10T08:48:34;95060.31;;;22.98;58.71
69171;BME280;56279;47.902;12.308;2023-06-10T08:50:38;95073.41;;;23.00;58.92
69171;BME280;56279;47.902;12.308;2023-06-10T08:52:42;95067.00;;;23.08;58.49
69171;BME280;56279;47.902;12.308;2023-06-10T08:54:59;95064.66;;;23.32;58.75
69171;BME280;56279;47.902;12.308;2023-06-10T08:57:01;95067.88;;;23.68;57.74
69171;BME280;56279;47.902;12.308;2023-06-10T08:59:05;95067.13;;;24.00;56.31
69171;BME280;56279;47.902;12.308;2023-06-10T09:01:08;95068.50;;;24.21;54.80
69171;BME280;56279;47.902;12.308;2023-06-10T09:03:10;95072.53;;;24.37;54.99
69171;BME280;56279;47.902;12.308;2023-06-10T09:05:13;95059.66;;;24.60;54.70
69171;BME280;56279;47.902;12.308;2023-06-10T09:07:17;95065.00;;;24.94;54.22
69171;BME280;56279;47.902;12.308;2023-06-10T09:09:19;95061.59;;;25.04;53.05
69171;BME280;56279;47.902;12.308;2023-06-10T09:11:21;95070.69;;;24.82;50.78
69171;BME280;56279;47.902;12.308;2023-06-10T09:13:22;95061.88;;;24.51;51.84
69171;BME280;56279;47.902;12.308;2023-06-10T09:15:24;95059.97;;;24.52;52.46
69171;BME280;56279;47.902;12.308;2023-06-10T09:17:25;95061.44;;;24.46;53.42
69171;BME280;56279;47.902;12.308;2023-06-10T09:19:28;95065.06;;;24.60;53.66
69171;BME280;56279;47.902;12.308;2023-06-10T09:21:29;95063.03;;;24.91;54.16
69171;BME280;56279;47.902;12.308;2023-06-10T09:23:30;95054.34;;;25.18;53.54
69171;BME280;56279;47.902;12.308;2023-06-10T09:25:38;95055.75;;;25.49;52.58
69171;BME280;56279;47.902;12.308;2023-06-10T09:27:51;95057.00;;;25.66;51.49
69171;BME280;56279;47.902;12.308;2023-06-10T09:29:55;95051.25;;;25.78;51.14
69171;BME280;56279;47.902;12.308;2023-06-10T09:31:56;95058.56;;;25.70;50.76
69171;BME280;56279;47.902;12.308;2023-06-10T09:34:12;95059.91;;;25.39;49.60
69171;BME280;56279;47.902;12.308;2023-06-10T09:36:22;95043.94;;;25.13;49.80
69171;BME280;56279;47.902;12.308;2023-06-10T09:38:29;95057.22;;;24.89;50.76
69171;BME280;56279;47.902;12.308;2023-06-10T09:40:31;95060.84;;;24.63;51.14
69171;BME280;56279;47.902;12.308;2023-06-10T09:42:35;95059.09;;;24.41;52.17
69171;BME280;56279;47.902;12.308;2023-06-10T09:44:38;95056.94;;;24.20;51.81
69171;BME280;56279;47.902;12.308;2023-06-10T09:46:40;95054.41;;;24.01;52.59
69171;BME280;56279;47.902;12.308;2023-06-10T09:48:46;95059.91;;;23.78;53.40
69171;BME280;56279;47.902;12.308;2023-06-10T09:50:48;95055.13;;;23.65;53.96
69171;BME280;56279;47.902;12.308;2023-06-10T09:52:50;95063.84;;;23.55;53.61
69171;BME280;56279;47.902;12.308;2023-06-10T09:54:52;95061.47;;;23.50;53.51
69171;BME280;56279;47.902;12.308;2023-06-10T09:56:53;95058.31;;;23.44;53.80
69171;BME280;56279;47.902;12.308;2023-06-10T09:58:54;95064.63;;;23.29;54.91
69171;BME280;56279;47.902;12.308;2023-06-10T10:00:55;95069.84;;;23.18;55.47
69171;BME280;56279;47.902;12.308;2023-06-10T10:02:57;95061.72;;;23.15;55.97
69171;BME280;56279;47.902;12.308;2023-06-10T10:05:04;95057.56;;;23.21;55.75
69171;BME280;56279;47.902;12.308;2023-06-10T10:07:08;95062.56;;;23.45;55.63
69171;BME280;56279;47.902;12.308;2023-06-10T10:09:09;95061.31;;;23.69;54.27
69171;BME280;56279;47.902;12.308;2023-06-10T10:11:11;95061.56;;;23.86;54.65
69171;BME280;56279;47.902;12.308;2023-06-10T10:13:13;95060.66;;;24.09;54.98
69171;BME280;56279;47.902;12.308;2023-06-10T10:15:17;95060.16;;;24.29;54.27
69171;BME280;56279;47.902;12.308;2023-06-10T10:17:19;95059.06;;;24.37;53.70
69171;BME280;56279;47.902;12.308;2023-06-10T10:19:25;95062.13;;;24.36;53.01
69171;BME280;56279;47.902;12.308;2023-06-10T10:21:32;95065.09;;;24.27;52.60
69171;BME280;56279;47.902;12.308;2023-06-10T10:25:51;95058.75;;;24.09;52.25
69171;BME280;56279;47.902;12.308;2023-06-10T10:28:08;95059.25;;;24.18;51.82
69171;BME280;56279;47.902;12.308;2023-06-10T10:30:11;95062.78;;;24.22;51.41
69171;BME280;56279;47.902;12.308;2023-06-10T10:32:13;95058.56;;;24.25;51.34
69171;BME280;56279;47.902;12.308;2023-06-10T10:34:19;95062.06;;;24.29;51.30
69171;BME280;56279;47.902;12.308;2023-06-10T10:36:22;95052.47;;;24.31;49.82
69171;BME280;56279;47.902;12.308;2023-06-10T10:38:24;95055.66;;;24.44;49.61
69171;BME280;56279;47.902;12.308;2023-06-10T10:40:28;95054.59;;;24.55;49.17
69171;BME280;56279;47.902;12.308;2023-06-10T10:42:34;95051.91;;;24.55;49.41
69171;BME280;56279;47.902;12.308;2023-06-10T10:44:37;95056.22;;;24.63;49.39
69171;BME280;56279;47.902;12.308;2023-06-10T10:46:44;95047.50;;;24.77;49.51